Time;durP1;ratioP1;P1;durP2;ratioP2;P2;SDS_P1;SDS_P2;PMS_P1;PMS_P2;Temp;Humidity;BMP_temperature;BMP_pressure;BME280_temperature;BME280_humidity;BME280_pressure;Samples;Min_cycle;Max_cycle;Signal;HPM_P1;HPM_P2
2023/03/25 00:02:07;;;;;;;60.00;5.47;;;;;;;9.18;100.00;99996.00;5071415;28;20137;-47
2023/03/25 00:04:34;;;;;;;57.00;5.00;;;;;;;9.20;100.00;99987.78;5088407;28;20063;-48
2023/03/25 00:07:00;;;;;;;76.97;5.68;;;;;;;9.17;100.00;100001.59;5072661;28;20028;-49
2023/03/25 00:09:25;;;;;;;54.60;5.15;;;;;;;9.14;100.00;99983.19;5091697;28;20024;-48
2023/03/25 00:11:51;;;;;;;59.80;5.85;;;;;;;9.12;100.00;99980.69;5091733;28;20107;-49
2023/03/25 00:14:18;;;;;;;70.68;4.93;;;;;;;9.14;100.00;99980.50;5074077;28;20056;-49
2023/03/25 00:16:47;;;;;;;81.28;6.65;;;;;;;9.10;100.00;99971.97;5065015;28;20690;-48
2023/03/25 00:19:14;;;;;;;62.05;5.97;;;;;;;9.10;100.00;99979.22;5055817;28;20433;-48
2023/03/25 00:21:43;;;;;;;76.90;5.18;;;;;;;9.08;100.00;99978.56;5059559;28;20416;-47
2023/03/25 00:24:11;;;;;;;61.67;4.43;;;;;;;9.10;100.00;99992.63;5065977;28;20071;-48
2023/03/25 00:26:41;;;;;;;53.53;5.55;;;;;;;9.08;100.00;99981.25;5069631;28;20028;-50
2023/03/25 00:29:09;;;;;;;68.25;5.90;;;;;;;9.07;100.00;99982.28;5070453;28;20040;-49
2023/03/25 00:31:35;;;;;;;;;;;;;;;9.06;100.00;99991.34;5070996;28;20378;-48
2023/03/25 00:34:00;;;;;;;88.97;5.82;;;;;;;9.06;100.00;99983.28;5069555;28;19912;-49
2023/03/25 00:36:25;;;;;;;81.97;5.95;;;;;;;9.06;100.00;99975.25;5070565;28;20064;-49
2023/03/25 00:38:51;;;;;;;77.45;7.03;;;;;;;9.05;100.00;99978.97;5068919;28;20024;-47
2023/03/25 00:41:24;;;;;;;70.00;5.60;;;;;;;9.07;100.00;99976.91;5070189;28;20028;-46
2023/03/25 00:43:54;;;;;;;73.40;5.32;;;;;;;9.07;100.00;99977.75;5079688;28;20032;-48
2023/03/25 00:46:21;;;;;;;70.47;5.90;;;;;;;9.07;100.00;99976.91;5070973;28;20043;-50
2023/03/25 00:48:47;;;;;;;95.38;5.63;;;;;;;9.07;100.00;99975.06;5069310;28;20082;-49
2023/03/25 00:51:18;;;;;;;88.32;5.78;;;;;;;9.08;100.00;100000.03;5070617;28;20032;-49
2023/03/25 00:53:44;;;;;;;76.05;5.13;;;;;;;9.10;100.00;99981.91;5069154;28;20052;-48
2023/03/25 00:56:09;;;;;;;85.40;5.70;;;;;;;9.11;100.00;99978.19;5068697;28;20024;-49
2023/03/25 00:58:35;;;;;;;68.45;6.65;;;;;;;9.08;100.00;99978.56;5070546;28;20089;-47
2023/03/25 01:01:01;;;;;;;80.28;7.15;;;;;;;9.06;100.00;99986.84;5070307;28;20092;-48
2023/03/25 01:03:29;;;;;;;72.25;5.40;;;;;;;9.07;100.00;99969.69;5069378;28;20040;-50
2023/03/25 01:05:56;;;;;;;;;;;;;;;9.07;100.00;99971.56;5074362;28;20437;-48
2023/03/25 01:08:24;;;;;;;56.00;4.00;;;;;;;9.05;100.00;99990.53;5072820;28;19973;-49
2023/03/25 01:10:51;;;;;;;75.35;6.22;;;;;;;9.00;100.00;99975.03;5071910;28;20048;-48
2023/03/25 01:13:17;;;;;;;59.15;5.85;;;;;;;8.98;100.00;100001.22;5074101;28;20052;-49
2023/03/25 01:15:42;;;;;;;73.32;7.22;;;;;;;8.97;100.00;99996.84;5076302;28;20423;-50
2023/03/25 01:18:08;;;;;;;99.70;6.43;;;;;;;8.97;100.00;99978.06;5073439;28;20427;-49
2023/03/25 01:20:33;;;;;;;77.18;6.97;;;;;;;8.95;100.00;99972.09;5085190;28;20097;-48
2023/03/25 01:22:59;;;;;;;87.40;5.60;;;;;;;8.95;100.00;99990.88;5089801;28;20084;-50
2023/03/25 01:25:24;;;;;;;68.05;5.50;;;;;;;8.95;100.00;99971.22;5082881;28;20340;-48
2023/03/25 01:27:50;;;;;;;71.85;5.30;;;;;;;8.96;100.00;99978.28;5084446;28;20333;-50
2023/03/25 01:30:15;;;;;;;79.50;7.10;;;;;;;8.96;100.00;99995.19;5083754;28;20032;-52
2023/03/25 01:32:41;;;;;;;88.03;5.93;;;;;;;8.97;100.00;99982.59;5075762;28;20332;-49
2023/03/25 01:35:06;;;;;;;78.03;6.00;;;;;;;8.95;100.00;99977.44;5093097;28;20028;-49
2023/03/25 01:37:35;;;;;;;79.18;6.55;;;;;;;8.93;100.00;100009.00;5074171;28;20097;-49
2023/03/25 01:40:03;;;;;;;81.60;6.07;;;;;;;8.93;100.00;99976.81;5073916;28;20060;-48
2023/03/25 01:42:30;;;;;;;73.38;5.72;;;;;;;8.94;100.00;99989.19;5074126;28;20020;-49
2023/03/25 01:45:24;;;;;;;62.70;5.85;;;;;;;8.90;100.00;99971.81;5073652;28;20036;-50
2023/03/25 01:47:54;;;;;;;68.38;6.13;;;;;;;8.89;100.00;99980.06;5073744;28;20037;-47
2023/03/25 01:50:20;;;;;;;77.78;6.32;;;;;;;8.88;100.00;99986.47;5072967;28;20353;-49
2023/03/25 01:52:49;;;;;;;65.95;5.50;;;;;;;8.88;100.00;99979.22;5078064;28;20047;-49
2023/03/25 01:55:16;;;;;;;70.05;5.95;;;;;;;8.88;100.00;99983.78;5072976;28;20399;-48
2023/03/25 01:57:45;;;;;;;76.53;4.65;;;;;;;8.85;100.00;99974.25;5073709;28;20120;-50
2023/03/25 02:00:11;;;;;;;;;;;;;;;8.82;100.00;99971.97;5073451;28;20094;-49
2023/03/25 02:02:38;;;;;;;64.75;7.97;;;;;;;8.81;100.00;99972.97;5077430;28;20236;-47
2023/03/25 02:05:09;;;;;;;72.43;6.65;;;;;;;8.82;100.00;99969.28;5073526;28;20027;-49
2023/03/25 02:07:41;;;;;;;77.72;6.45;;;;;;;8.82;100.00;99958.53;5079307;28;20067;-48
2023/03/25 02:10:09;;;;;;;66.40;6.72;;;;;;;8.84;100.00;99972.56;5073253;28;20040;-46
2023/03/25 02:12:34;;;;;;;105.25;7.53;;;;;;;8.86;100.00;99977.75;5083842;28;20032;-48
2023/03/25 02:15:02;;;;;;;116.85;8.57;;;;;;;8.85;100.00;99982.31;5076876;28;20029;-49
2023/03/25 02:17:46;;;;;;;106.83;7.37;;;;;;;8.85;100.00;99960.00;5066330;28;20036;-48
2023/03/25 02:20:56;;;;;;;94.05;8.10;;;;;;;8.86;100.00;99978.59;5072802;28;20298;-51
2023/03/25 02:23:27;;;;;;;106.18;7.63;;;;;;;8.88;100.00;99952.41;5072788;28;20138;-51
2023/03/25 02:26:10;;;;;;;103.72;7.82;;;;;;;8.89;100.00;99955.91;5081868;28;20048;-47
2023/03/25 02:28:36;;;;;;;106.60;7.78;;;;;;;8.91;100.00;99957.38;5059065;28;20033;-50
2023/03/25 02:31:24;;;;;;;125.07;9.43;;;;;;;8.88;100.00;99955.09;5073137;28;20036;-49
2023/03/25 02:34:19;;;;;;;;;;;;;;;8.89;100.00;99974.69;5085258;28;20485;-48
2023/03/25 02:36:51;;;;;;;130.68;9.38;;;;;;;8.90;100.00;99953.03;5071718;28;19973;-50
2023/03/25 02:39:31;;;;;;;109.82;8.43;;;;;;;8.91;100.00;99962.75;5071877;28;20035;-47
2023/03/25 02:42:05;;;;;;;127.20;9.32;;;;;;;8.91;100.00;99960.06;5071922;28;20028;-49
2023/03/25 02:44:35;;;;;;;114.32;10.52;;;;;;;8.92;100.00;99959.03;5071757;28;20032;-48
2023/03/25 02:47:04;;;;;;;122.90;9.90;;;;;;;8.91;100.00;99952.00;5072516;28;20113;-50
2023/03/25 02:49:35;;;;;;;110.63;7.18;;;;;;;8.92;100.00;99947.47;5072414;28;20028;-49
2023/03/25 02:52:16;;;;;;;96.90;9.55;;;;;;;8.93;100.00;99955.34;5071518;28;20029;-49
2023/03/25 02:54:44;;;;;;;82.53;7.10;;;;;;;8.93;100.00;99943.78;5076002;28;20032;-48
2023/03/25 02:57:12;;;;;;;110.25;9.15;;;;;;;8.91;100.00;99935.91;5077001;28;20035;-51
2023/03/25 02:59:37;;;;;;;100.28;8.15;;;;;;;8.93;100.00;99933.03;5071049;28;20047;-48
2023/03/25 03:02:07;;;;;;;107.50;9.93;;;;;;;8.90;100.00;99931.56;5070827;28;20052;-50
2023/03/25 03:04:44;;;;;;;86.93;6.80;;;;;;;8.89;100.00;99929.06;5070780;28;20032;-48
2023/03/25 03:07:10;;;;;;;92.00;6.43;;;;;;;8.89;100.00;99932.56;5084086;28;20050;-47
2023/03/25 03:09:44;;;;;;;85.13;5.53;;;;;;;8.90;100.00;99923.53;5075945;28;20491;-51
2023/03/25 03:12:42;;;;;;;108.28;8.45;;;;;;;8.87;100.00;99926.56;5081495;28;20047;-48
2023/03/25 03:15:19;;;;;;;102.00;8.65;;;;;;;8.83;100.00;99943.28;5038944;28;20040;-48
2023/03/25 03:17:56;;;;;;;93.77;10.33;;;;;;;8.82;100.00;99926.34;5062115;28;20380;-51
2023/03/25 03:20:34;;;;;;;96.23;7.10;;;;;;;8.79;100.00;99932.06;5070568;28;20067;-48
2023/03/25 03:23:06;;;;;;;114.80;10.68;;;;;;;8.75;100.00;99930.81;5076223;28;20289;-48
2023/03/25 03:25:33;;;;;;;105.45;7.72;;;;;;;8.76;100.00;99967.34;5078280;28;20032;-49
2023/03/25 03:28:08;;;;;;;85.82;6.75;;;;;;;8.72;100.00;99936.56;5087849;28;20107;-48
2023/03/25 03:31:10;;;;;;;100.00;7.00;;;;;;;8.75;100.00;99939.69;5077443;28;20419;-49
2023/03/25 03:33:56;;;;;;;115.63;9.10;;;;;;;8.71;100.00;99949.13;5062695;28;20068;-48
2023/03/25 03:36:29;;;;;;;94.43;7.38;;;;;;;8.72;100.00;99949.97;5090192;28;20028;-49
2023/03/25 03:39:01;;;;;;;101.82;10.15;;;;;;;8.70;100.00;99936.75;5090832;28;20039;-49
2023/03/25 03:41:28;;;;;;;113.82;8.93;;;;;;;8.69;100.00;99936.94;5090159;28;20092;-51
2023/03/25 03:44:01;;;;;;;113.25;8.65;;;;;;;8.51;100.00;99959.69;5071366;28;20029;-50
2023/03/25 03:46:50;;;;;;;121.28;9.07;;;;;;;8.36;100.00;99942.75;5070436;28;20090;-49
2023/03/25 03:49:18;;;;;;;106.05;10.80;;;;;;;8.35;100.00;99965.25;5071907;28;20158;-49
2023/03/25 03:51:58;;;;;;;114.50;8.27;;;;;;;8.30;100.00;99964.97;5077775;28;20028;-48
2023/03/25 03:54:27;;;;;;;118.68;9.35;;;;;;;8.27;100.00;99963.50;5088734;28;20165;-50
2023/03/25 03:57:06;;;;;;;117.13;8.10;;;;;;;8.28;100.00;99977.72;5071977;28;20371;-49
2023/03/25 04:00:17;;;;;;;105.85;7.43;;;;;;;8.31;100.00;99966.63;5069758;28;20036;-52
2023/03/25 04:02:49;;;;;;;106.03;6.47;;;;;;;8.33;100.00;99961.91;5066614;28;20071;-48
2023/03/25 04:05:17;;;;;;;83.85;6.65;;;;;;;8.31;100.00;99955.91;5069982;28;20028;-49
2023/03/25 04:07:57;;;;;;;93.38;7.18;;;;;;;8.28;100.00;99956.28;5071153;28;20036;-48
2023/03/25 04:10:33;;;;;;;94.82;7.07;;;;;;;8.26;100.00;99961.00;5068041;28;20027;-49
2023/03/25 04:13:00;;;;;;;106.57;8.52;;;;;;;8.24;100.00;99965.72;5070248;28;20087;-48
2023/03/25 04:15:25;;;;;;;92.38;6.80;;;;;;;8.23;100.00;99964.88;5065697;28;20033;-48
2023/03/25 04:17:50;;;;;;;112.72;9.40;;;;;;;8.21;100.00;99974.97;5058121;28;20170;-46
2023/03/25 04:20:22;;;;;;;110.65;9.63;;;;;;;8.22;100.00;99965.09;5070041;28;20779;-48
2023/03/25 04:22:48;;;;;;;92.65;8.13;;;;;;;8.21;100.00;99960.72;5069407;28;20032;-49
2023/03/25 04:25:14;;;;;;;106.18;8.18;;;;;;;8.23;100.00;99966.75;5068955;28;20020;-51
2023/03/25 04:27:39;;;;;;;106.28;6.90;;;;;;;8.25;100.00;99954.00;5070889;28;20368;-48
2023/03/25 04:30:06;;;;;;;93.90;7.05;;;;;;;8.24;100.00;99963.03;5071331;28;20028;-52
2023/03/25 04:32:32;;;;;;;106.53;8.25;;;;;;;8.24;100.00;99960.34;5070801;28;20024;-51
2023/03/25 04:34:58;;;;;;;82.78;6.18;;;;;;;8.22;100.00;99949.84;5075649;28;20482;-51
2023/03/25 04:37:24;;;;;;;102.60;10.43;;;;;;;8.21;100.00;99960.72;5078486;28;20051;-49
2023/03/25 04:39:52;;;;;;;84.57;6.53;;;;;;;8.19;100.00;99973.47;5069732;28;20115;-49
2023/03/25 04:42:18;;;;;;;86.75;8.85;;;;;;;8.16;100.00;99973.88;5068861;28;20039;-50
2023/03/25 04:44:44;;;;;;;86.60;6.65;;;;;;;8.17;100.00;99971.00;5068324;28;20025;-49
2023/03/25 04:47:13;;;;;;;92.28;6.88;;;;;;;8.13;100.00;99970.53;5070537;28;20068;-48
2023/03/25 04:49:41;;;;;;;86.88;7.15;;;;;;;8.12;100.00;99958.16;5069548;28;20024;-48
2023/03/25 04:52:08;;;;;;;87.80;6.55;;;;;;;8.08;100.00;99967.63;5067952;28;20025;-50
2023/03/25 04:54:33;;;;;;;84.45;7.57;;;;;;;8.07;100.00;99965.94;5070470;28;20037;-48
2023/03/25 04:56:59;;;;;;;84.53;6.95;;;;;;;8.07;100.00;99976.66;5070614;28;20035;-47
2023/03/25 04:59:25;;;;;;;80.00;6.55;;;;;;;8.07;100.00;99963.25;5085288;28;20058;-47
2023/03/25 05:01:52;;;;;;;77.10;5.65;;;;;;;8.06;100.00;99969.63;5075136;28;20020;-50
2023/03/25 05:04:18;;;;;;;67.10;6.05;;;;;;;8.07;100.00;99965.94;5075412;28;20044;-48
2023/03/25 05:06:49;;;;;;;78.60;6.28;;;;;;;8.09;100.00;99958.53;5070290;28;20045;-49
2023/03/25 05:09:23;;;;;;;73.57;5.30;;;;;;;8.12;100.00;99968.88;5059737;28;20032;-51
2023/03/25 05:11:51;;;;;;;92.07;6.55;;;;;;;8.16;100.00;99968.50;5061584;28;20021;-47
2023/03/25 05:14:18;;;;;;;79.88;6.63;;;;;;;8.18;100.00;99983.38;5070804;28;20032;-49
2023/03/25 05:16:44;;;;;;;97.40;7.88;;;;;;;8.21;100.00;99976.81;5086850;28;20035;-48
2023/03/25 05:19:10;;;;;;;105.18;6.93;;;;;;;8.23;100.00;99969.44;5073349;28;20086;-50
2023/03/25 05:21:37;;;;;;;105.38;6.65;;;;;;;8.25;100.00;99972.75;5071076;28;20024;-49
2023/03/25 05:24:03;;;;;;;105.70;7.43;;;;;;;8.24;100.00;99987.16;5069945;28;20123;-48
2023/03/25 05:26:33;;;;;;;80.00;5.97;;;;;;;8.24;100.00;99981.78;5070501;28;20535;-48
2023/03/25 05:29:02;;;;;;;97.50;8.32;;;;;;;8.25;100.00;99978.13;5069240;28;20040;-48
2023/03/25 05:31:28;;;;;;;97.60;8.20;;;;;;;8.25;100.00;99988.84;5075627;28;20032;-51
2023/03/25 05:33:54;;;;;;;119.18;9.85;;;;;;;8.24;100.00;99984.47;5068867;28;20694;-51
2023/03/25 05:36:19;;;;;;;116.90;7.18;;;;;;;8.23;100.00;99986.34;5070652;28;20029;-49
2023/03/25 05:38:45;;;;;;;101.40;7.22;;;;;;;8.18;100.00;99993.28;5072459;28;20029;-47
2023/03/25 05:41:16;;;;;;;97.10;7.15;;;;;;;8.14;100.00;99985.63;5066150;28;20383;-50
2023/03/25 05:43:46;;;;;;;89.03;6.93;;;;;;;8.11;100.00;99999.41;5067441;28;20029;-49
2023/03/25 05:46:15;;;;;;;81.47;7.45;;;;;;;8.13;100.00;100001.88;5070443;28;20079;-49
2023/03/25 05:48:40;;;;;;;89.03;7.65;;;;;;;8.07;100.00;99992.72;5068363;28;20036;-50
2023/03/25 05:51:14;;;;;;;97.45;9.77;;;;;;;8.09;100.00;100012.13;5069026;28;20086;-47
2023/03/25 05:53:42;;;;;;;107.53;7.13;;;;;;;8.02;100.00;100019.25;5068972;28;20074;-49
2023/03/25 05:56:08;;;;;;;102.70;9.38;;;;;;;7.98;100.00;100009.94;5069867;28;20037;-51
2023/03/25 05:58:35;;;;;;;116.28;8.40;;;;;;;7.96;100.00;100017.31;5072391;28;20404;-51
2023/03/25 06:01:01;;;;;;;118.05;11.05;;;;;;;7.96;100.00;100028.03;5072680;28;20118;-52
2023/03/25 06:03:27;;;;;;;106.35;7.53;;;;;;;7.98;100.00;100027.84;5072556;28;20036;-52
2023/03/25 06:05:52;;;;;;;88.78;5.88;;;;;;;7.97;100.00;100040.41;5071915;28;20541;-50
2023/03/25 06:08:24;;;;;;;81.38;6.72;;;;;;;7.97;100.00;100034.22;5068748;28;20045;-50
2023/03/25 06:10:53;;;;;;;96.82;7.88;;;;;;;8.00;100.00;100034.69;5077549;28;20032;-50
2023/03/25 06:13:19;;;;;;;96.05;7.95;;;;;;;7.99;100.00;100027.66;5092776;28;20475;-51
2023/03/25 06:15:44;;;;;;;85.38;7.20;;;;;;;8.02;100.00;100035.34;5072536;28;20403;-50
2023/03/25 06:18:10;;;;;;;95.30;8.13;;;;;;;8.06;100.00;100042.00;5075825;28;20036;-50
2023/03/25 06:20:35;;;;;;;107.63;6.93;;;;;;;8.07;100.00;100035.59;5071609;28;20031;-51
2023/03/25 06:23:00;;;;;;;74.65;6.25;;;;;;;8.10;100.00;100019.16;5069899;28;20388;-49
2023/03/25 06:25:27;;;;;;;110.53;9.98;;;;;;;8.12;100.00;100027.84;5074101;28;20116;-52
2023/03/25 06:27:54;;;;;;;90.00;6.28;;;;;;;8.13;100.00;100024.13;5071009;28;20040;-49
2023/03/25 06:30:20;;;;;;;97.00;9.00;;;;;;;8.13;100.00;100021.47;5058675;28;20036;-51
2023/03/25 06:32:49;;;;;;;81.30;6.45;;;;;;;8.17;100.00;100035.34;5049634;28;20393;-48
2023/03/25 06:35:18;;;;;;;87.75;7.85;;;;;;;8.20;100.00;100029.59;5079881;28;20032;-49
2023/03/25 06:37:47;;;;;;;89.78;6.35;;;;;;;8.26;100.00;100038.75;5080506;28;20561;-50
2023/03/25 06:40:14;;;;;;;76.55;5.97;;;;;;;8.29;100.00;100030.31;5091410;28;20028;-49
2023/03/25 06:42:40;;;;;;;91.68;8.15;;;;;;;8.31;100.00;100014.88;5076804;28;20028;-50
2023/03/25 06:45:06;;;;;;;67.10;5.72;;;;;;;8.36;100.00;100023.19;5078695;28;20035;-52
2023/03/25 06:47:32;;;;;;;75.60;5.93;;;;;;;8.35;100.00;100016.19;5085339;28;20051;-51
2023/03/25 06:49:58;;;;;;;91.80;6.25;;;;;;;8.40;100.00;100024.53;5080665;28;20069;-50
2023/03/25 06:52:23;;;;;;;81.03;7.75;;;;;;;8.41;100.00;100025.34;5083887;28;20066;-52
2023/03/25 06:54:48;;;;;;;73.80;5.47;;;;;;;8.45;100.00;100030.16;5073171;28;20027;-50
2023/03/25 06:57:14;;;;;;;74.88;5.85;;;;;;;8.50;100.00;100030.41;5070595;28;20092;-49
2023/03/25 06:59:39;;;;;;;93.10;6.97;;;;;;;8.48;100.00;100032.47;5068987;28;20042;-49
2023/03/25 07:02:05;;;;;;;75.18;6.57;;;;;;;8.52;100.00;100023.00;5070905;28;20039;-49
2023/03/25 07:04:30;;;;;;;54.28;5.45;;;;;;;8.58;100.00;100032.16;5080110;28;20035;-49
2023/03/25 07:06:56;;;;;;;76.85;8.52;;;;;;;8.60;100.00;100023.91;5073486;28;20059;-48
2023/03/25 07:09:21;;;;;;;69.43;6.72;;;;;;;8.62;100.00;100022.72;5070575;28;20032;-49
2023/03/25 07:11:46;;;;;;;70.35;6.93;;;;;;;8.63;100.00;100023.53;5076012;28;20028;-49
2023/03/25 07:14:12;;;;;;;74.53;6.75;;;;;;;8.67;100.00;100020.28;5080086;28;20150;-48
2023/03/25 07:16:37;;;;;;;85.82;5.97;;;;;;;8.66;100.00;100028.53;5073212;28;20028;-51
2023/03/25 07:19:03;;;;;;;83.32;8.82;;;;;;;8.66;100.00;100018.66;5082473;28;20089;-50
2023/03/25 07:21:28;;;;;;;78.22;6.90;;;;;;;8.68;100.00;100037.22;5080827;28;20032;-47
2023/03/25 07:23:54;;;;;;;58.50;5.68;;;;;;;8.67;100.00;100046.28;5082397;28;20032;-49
2023/03/25 07:26:19;;;;;;;71.20;5.38;;;;;;;8.71;100.00;100023.41;5090898;28;20024;-49
2023/03/25 07:28:46;;;;;;;66.22;5.03;;;;;;;8.73;100.00;100027.56;5089776;28;20071;-50
2023/03/25 07:31:13;;;;;;;68.63;5.78;;;;;;;8.78;100.00;100027.00;5091198;28;20027;-49
2023/03/25 07:33:39;;;;;;;70.10;5.28;;;;;;;8.86;100.00;100026.88;5091676;28;20077;-49
2023/03/25 07:36:06;;;;;;;66.43;5.50;;;;;;;8.85;100.00;100027.91;5091029;28;20427;-49
2023/03/25 07:38:32;;;;;;;55.17;4.72;;;;;;;8.89;100.00;100045.28;5091380;28;20372;-50
2023/03/25 07:40:58;;;;;;;84.22;9.02;;;;;;;8.96;100.00;100029.25;5091082;28;20020;-49
2023/03/25 07:43:23;;;;;;;65.95;7.15;;;;;;;8.92;100.00;100036.84;5091526;28;20028;-49
2023/03/25 07:45:49;;;;;;;53.25;4.35;;;;;;;8.91;100.00;100039.75;5091029;28;20028;-48
2023/03/25 07:48:15;;;;;;;74.40;5.75;;;;;;;8.92;100.00;100026.13;5090878;28;20055;-50
2023/03/25 07:50:41;;;;;;;67.43;5.32;;;;;;;8.93;100.00;100026.97;5090242;28;20077;-49
2023/03/25 07:53:07;;;;;;;68.40;4.72;;;;;;;8.97;100.00;100029.06;5091062;28;20177;-48
2023/03/25 07:55:32;;;;;;;54.90;4.85;;;;;;;9.05;100.00;100032.66;5090958;28;20111;-48
2023/03/25 07:58:00;;;;;;;75.78;7.45;;;;;;;9.08;100.00;100046.50;5091037;28;20039;-50
2023/03/25 08:00:26;;;;;;;69.78;4.88;;;;;;;9.06;100.00;100031.59;5091408;28;20455;-48
2023/03/25 08:02:52;;;;;;;68.32;5.10;;;;;;;9.02;100.00;100037.38;5090916;28;20510;-49
2023/03/25 08:05:20;;;;;;;87.85;6.80;;;;;;;9.05;100.00;100075.59;5091071;28;20060;-50
2023/03/25 08:07:49;;;;;;;83.53;8.35;;;;;;;9.10;100.00;100041.78;5091022;28;20442;-48
2023/03/25 08:10:15;;;;;;;76.47;5.60;;;;;;;9.17;100.00;100053.41;5091012;28;20031;-51
2023/03/25 08:12:42;;;;;;;63.42;5.72;;;;;;;9.28;100.00;100059.31;5090842;28;20103;-50
2023/03/25 08:15:08;;;;;;;82.43;5.35;;;;;;;9.37;100.00;100047.38;5090350;28;20034;-48
2023/03/25 08:17:33;;;;;;;73.70;6.53;;;;;;;9.40;100.00;100063.09;5090513;28;20451;-51
2023/03/25 08:19:59;;;;;;;64.10;4.72;;;;;;;9.36;100.00;100105.63;5089797;28;20022;-49
2023/03/25 08:22:26;;;;;;;92.32;5.88;;;;;;;9.46;100.00;100054.28;5072826;28;20460;-50
2023/03/25 08:24:52;;;;;;;73.03;7.63;;;;;;;9.45;100.00;100066.03;5070467;28;20040;-49
2023/03/25 08:27:17;;;;;;;76.03;5.78;;;;;;;9.45;100.00;100068.72;5069931;28;20100;-49
2023/03/25 08:29:43;;;;;;;76.75;6.55;;;;;;;9.45;100.00;100061.53;5070401;28;20061;-50
2023/03/25 08:32:09;;;;;;;78.38;7.88;;;;;;;9.64;100.00;100076.13;5069910;28;20069;-48
2023/03/25 08:34:38;;;;;;;78.32;6.50;;;;;;;9.63;100.00;100066.41;5068998;28;20111;-49
2023/03/25 08:37:06;;;;;;;74.65;6.70;;;;;;;9.77;100.00;100077.25;5064578;28;20036;-52
2023/03/25 08:39:35;;;;;;;74.47;5.65;;;;;;;9.76;100.00;100071.03;5049854;28;20476;-48
2023/03/25 08:42:01;;;;;;;72.03;6.93;;;;;;;9.68;100.00;100061.28;5050198;28;20077;-50
2023/03/25 08:44:26;;;;;;;63.95;5.82;;;;;;;9.76;100.00;100070.22;5050158;28;20029;-49
2023/03/25 08:46:52;;;;;;;79.50;6.07;;;;;;;9.73;100.00;100059.88;5049944;28;20472;-49
2023/03/25 08:49:17;;;;;;;82.55;7.13;;;;;;;9.66;100.00;100070.56;5049398;28;20033;-49
2023/03/25 08:51:44;;;;;;;79.88;6.20;;;;;;;9.68;100.00;100074.72;5060918;28;20036;-48
2023/03/25 08:54:09;;;;;;;67.28;5.00;;;;;;;9.60;100.00;100095.53;5080255;28;20027;-48
2023/03/25 08:56:35;;;;;;;84.85;5.22;;;;;;;9.78;100.00;100082.44;5090039;28;20084;-50
2023/03/25 08:59:00;;;;;;;84.95;7.00;;;;;;;9.96;100.00;100083.81;5090079;28;20052;-47
2023/03/25 09:01:26;;;;;;;70.75;6.70;;;;;;;9.89;100.00;100098.03;5089942;28;20085;-49
2023/03/25 09:03:51;;;;;;;66.75;6.10;;;;;;;9.78;100.00;100093.19;5079892;28;20024;-51
2023/03/25 09:06:16;;;;;;;82.32;8.43;;;;;;;9.79;100.00;100089.47;5068933;28;20498;-50
2023/03/25 09:08:42;;;;;;;87.82;6.32;;;;;;;9.83;100.00;100082.69;5069091;28;20032;-50
2023/03/25 09:11:07;;;;;;;86.82;7.35;;;;;;;9.88;100.00;100103.59;5069011;28;20035;-49
2023/03/25 09:13:33;;;;;;;97.82;7.00;;;;;;;9.82;100.00;100094.47;5069561;28;20051;-47
2023/03/25 09:15:58;;;;;;;83.10;7.53;;;;;;;9.86;100.00;100081.47;5069059;28;20103;-51
2023/03/25 09:18:23;;;;;;;90.90;7.65;;;;;;;9.78;100.00;100098.56;5068188;28;20115;-49
2023/03/25 09:20:50;;;;;;;100.78;8.52;;;;;;;9.85;100.00;100109.38;5069876;28;20029;-50
2023/03/25 09:23:16;;;;;;;87.30;7.32;;;;;;;9.95;100.00;100096.41;5089051;28;20435;-51
2023/03/25 09:25:43;;;;;;;85.88;7.68;;;;;;;10.01;100.00;100092.13;5084905;28;20132;-46
2023/03/25 09:28:08;;;;;;;75.30;7.32;;;;;;;10.06;100.00;100105.81;5069016;28;20456;-48
2023/03/25 09:30:34;;;;;;;94.78;7.95;;;;;;;10.14;100.00;100086.84;5069471;28;20035;-49
2023/03/25 09:33:00;;;;;;;91.40;6.75;;;;;;;10.18;100.00;100093.44;5073203;28;20032;-49
2023/03/25 09:35:25;;;;;;;83.13;6.80;;;;;;;10.19;100.00;100092.44;5073034;28;20024;-49
2023/03/25 09:37:50;;;;;;;80.53;6.65;;;;;;;10.27;100.00;100103.06;5072686;28;20597;-47
2023/03/25 09:40:17;;;;;;;77.32;6.47;;;;;;;10.41;100.00;100097.75;5072647;28;20503;-48
2023/03/25 09:43:09;;;;;;;84.03;6.15;;;;;;;10.64;100.00;100095.59;5073156;28;20032;-48
2023/03/25 09:45:38;;;;;;;87.95;6.95;;;;;;;10.99;100.00;100119.75;5073427;28;20062;-49
2023/03/25 09:48:15;;;;;;;80.95;6.57;;;;;;;11.15;100.00;100091.59;5072812;28;20348;-48
2023/03/25 09:50:42;;;;;;;87.30;6.68;;;;;;;11.25;100.00;100096.59;5072841;28;20040;-49
2023/03/25 09:53:39;;;;;;;77.60;7.83;;;;;;;11.53;100.00;100091.88;5071470;28;20035;-49
2023/03/25 09:56:10;;;;;;;79.65;6.53;;;;;;;11.53;100.00;100091.88;5072819;28;20273;-48
2023/03/25 09:58:42;;;;;;;100.10;9.02;;;;;;;11.42;100.00;100095.16;5071201;28;20032;-48
2023/03/25 10:01:29;;;;;;;89.72;6.97;;;;;;;11.26;100.00;100112.53;5082168;28;21105;-48
2023/03/25 10:04:22;;;;;;;74.70;6.85;;;;;;;11.04;100.00;100133.44;5072918;28;20032;-52
2023/03/25 10:07:00;;;;;;;71.43;7.28;;;;;;;10.85;100.00;100134.16;5073094;28;20384;-47
2023/03/25 10:09:41;;;;;;;77.00;6.82;;;;;;;10.61;100.00;100120.22;5070065;28;20081;-49
2023/03/25 10:12:31;;;;;;;92.93;7.88;;;;;;;10.83;100.00;100133.56;5069778;28;20145;-50
2023/03/25 10:15:05;;;;;;;87.85;7.57;;;;;;;11.15;100.00;100126.63;5070539;28;20036;-47
2023/03/25 10:17:33;;;;;;;74.47;7.28;;;;;;;11.24;100.00;100111.09;5081447;28;20504;-52
2023/03/25 10:20:40;;;;;;;83.47;7.40;;;;;;;11.26;100.00;100130.59;5087499;28;20482;-48
2023/03/25 10:23:12;;;;;;;85.40;7.73;;;;;;;11.26;100.00;100133.28;5082914;28;20071;-48
2023/03/25 10:25:40;;;;;;;81.65;6.68;;;;;;;11.21;100.00;100121.22;5070504;28;20116;-49
2023/03/25 10:28:11;;;;;;;87.70;6.78;;;;;;;10.94;100.00;100130.28;5068839;28;20035;-49
2023/03/25 10:30:47;;;;;;;95.32;7.45;;;;;;;11.01;100.00;100233.47;5088765;28;20074;-50
2023/03/25 10:33:30;;;;;;;86.65;6.50;;;;;;;11.11;100.00;100142.38;5071795;28;20035;-49
2023/03/25 10:35:58;;;;;;;77.88;7.05;;;;;;;11.32;100.00;100132.44;5085862;28;20039;-49
2023/03/25 10:38:23;;;;;;;;;;;;;;;11.32;100.00;100143.22;5071400;28;20040;-50
2023/03/25 10:40:51;;;;;;;84.88;7.35;;;;;;;11.32;100.00;100171.03;5072318;28;19912;-49
2023/03/25 10:43:26;;;;;;;106.53;8.95;;;;;;;11.41;100.00;100153.63;5079179;28;20031;-49
2023/03/25 10:45:55;;;;;;;84.28;8.65;;;;;;;11.36;100.00;100160.66;5061658;28;20045;-48
2023/03/25 10:48:23;;;;;;;87.70;6.97;;;;;;;11.38;100.00;100147.81;5067229;28;20191;-48
2023/03/25 10:50:51;;;;;;;89.72;8.38;;;;;;;11.71;100.00;100157.81;5075437;28;20028;-47
2023/03/25 10:53:21;;;;;;;;;;;;;;;12.13;100.00;100170.06;5068503;28;20024;-48
2023/03/25 10:55:51;;;;;;;76.18;5.63;;;;;;;12.12;100.00;100143.31;5068309;28;21054;-49
2023/03/25 10:58:17;;;;;;;97.88;10.55;;;;;;;12.06;100.00;100151.22;5068523;28;20123;-47
2023/03/25 11:00:42;;;;;;;71.72;7.25;;;;;;;12.09;100.00;100158.06;5067447;28;20158;-47
2023/03/25 11:03:19;;;;;;;81.45;6.90;;;;;;;12.16;100.00;100149.94;5078748;28;20078;-48
2023/03/25 11:05:45;;;;;;;80.00;7.43;;;;;;;12.26;100.00;100153.03;5089751;28;20089;-49
2023/03/25 11:08:12;;;;;;;81.75;7.00;;;;;;;12.29;100.00;100182.31;5078286;28;20116;-49
2023/03/25 11:10:37;;;;;;;85.18;9.40;;;;;;;12.59;100.00;100153.00;5068005;28;20102;-48
2023/03/25 11:13:03;;;;;;;81.60;7.03;;;;;;;12.69;100.00;100182.22;5070381;28;20045;-48
2023/03/25 11:15:38;;;;;;;79.22;7.25;;;;;;;12.69;100.00;100155.22;5088522;28;20059;-50
2023/03/25 11:18:09;;;;;;;82.32;7.82;;;;;;;12.84;100.00;100166.59;5088221;28;20050;-47
2023/03/25 11:20:44;;;;;;;80.22;7.15;;;;;;;12.43;100.00;100167.75;5082119;28;20039;-48
2023/03/25 11:23:21;;;;;;;78.93;6.93;;;;;;;12.36;100.00;100161.53;5066285;28;20094;-49
2023/03/25 11:25:47;;;;;;;89.65;7.13;;;;;;;12.81;100.00;100190.50;5072413;28;20027;-49
2023/03/25 11:28:17;;;;;;;62.15;6.18;;;;;;;13.18;100.00;100178.91;5089541;28;20020;-48
2023/03/25 11:31:22;;;;;;;111.72;8.18;;;;;;;12.96;100.00;100178.41;5085888;28;20024;-47